< < Back
Terminal Aerodrome Forecast


Current Version              Previous Versions:   1  2  3  4  5  6  7  8  9  

Terminal Aerodrome Forecast

463
FTUS42 KMLB 272201 AAA
TAFDAB
TAF AMD
KDAB 272201Z 2722/2818 08005KT P6SM FEW030 SCT150 SCT250
     FM280000 VRB03KT P6SM FEW250
     FM281500 24005KT P6SM SCT030=

Latest METAR

627
SAUS80 KWBC 272300 RRZ
MTRDAB
METAR KDAB 272153Z 08007KT 10SM FEW030 SCT150 SCT250 30/23 A2999 RMK AO2
SLP155 CB DSNT SW W T03000228


USA.gov is the U.S. government's official web portal to all federal, state and local government web resources and services.